createdAt,value
2022-10-18T00:00:30.491Z,100319.69
2022-10-18T00:01:31.915Z,100333.91
2022-10-18T00:02:33.329Z,100322.53
2022-10-18T00:03:35.567Z,100331.50
2022-10-18T00:04:37.148Z,100327.13
2022-10-18T00:05:38.595Z,100326.16
2022-10-18T00:06:43.373Z,100323.72
2022-10-18T00:07:45.128Z,100330.81
2022-10-18T00:08:46.590Z,100330.38
2022-10-18T00:09:48.003Z,100327.56
2022-10-18T00:10:49.678Z,100329.72
2022-10-18T00:11:51.080Z,100324.53
2022-10-18T00:12:52.726Z,100326.09
2022-10-18T00:13:56.397Z,100324.03
2022-10-18T00:14:57.803Z,100327.28
2022-10-18T00:16:01.033Z,100323.22
2022-10-18T00:17:02.564Z,100325.75
2022-10-18T00:18:04.164Z,100323.59
2022-10-18T00:19:05.615Z,100327.63
2022-10-18T00:20:07.703Z,100330.28
2022-10-18T00:21:12.981Z,100327.81
2022-10-18T00:22:14.407Z,100327.28
2022-10-18T00:23:15.808Z,100327.28
2022-10-18T00:24:17.205Z,100327.88
2022-10-18T00:25:18.720Z,100332.19
2022-10-18T00:26:23.757Z,100332.63
2022-10-18T00:27:25.238Z,100333.09
2022-10-18T00:28:27.707Z,100333.53
2022-10-18T00:29:29.176Z,100330.63
2022-10-18T00:30:30.522Z,100333.94
2022-10-18T00:31:34.950Z,100336.25
2022-10-18T00:32:41.530Z,100334.38
2022-10-18T00:33:45.236Z,100339.19
2022-10-18T00:34:46.735Z,100333.72
2022-10-18T00:35:48.164Z,100337.72
2022-10-18T00:36:49.487Z,100328.78
2022-10-18T00:37:50.887Z,100335.22
2022-10-18T00:38:52.627Z,100330.41
2022-10-18T00:39:54.053Z,100331.13
2022-10-18T00:40:55.392Z,100329.75
2022-10-18T00:41:56.820Z,100322.03
2022-10-18T00:42:58.213Z,100320.38
2022-10-18T00:44:01.299Z,100325.06
2022-10-18T00:45:21.406Z,100320.31
2022-10-18T00:46:23.908Z,100335.72
2022-10-18T00:47:26.230Z,100327.78
2022-10-18T00:48:27.862Z,100320.59
2022-10-18T00:49:36.426Z,100331.41
2022-10-18T00:50:38.525Z,100332.38
2022-10-18T00:51:44.776Z,100326.34
2022-10-18T00:52:53.076Z,100327.91
2022-10-18T00:53:54.565Z,100321.56
2022-10-18T00:54:57.488Z,100326.94
2022-10-18T00:55:59.076Z,100314.81
2022-10-18T00:57:01.293Z,100310.97
2022-10-18T00:58:03.911Z,100315.88
2022-10-18T00:59:05.731Z,100320.56
2022-10-18T01:00:08.531Z,100318.88
2022-10-18T01:01:10.247Z,100325.13
2022-10-18T01:02:12.338Z,100318.38
2022-10-18T01:03:13.946Z,100327.53
2022-10-18T01:04:17.420Z,100319.50
2022-10-18T01:05:19.898Z,100325.16
2022-10-18T01:06:21.627Z,100328.41
2022-10-18T01:07:34.087Z,100327.44
2022-10-18T01:08:53.240Z,100321.91
2022-10-18T01:10:24.891Z,100328.41
2022-10-18T01:11:44.491Z,100323.59
2022-10-18T01:13:04.665Z,100324.66
2022-10-18T01:14:24.540Z,100319.88
2022-10-18T01:15:35.175Z,100322.38
2022-10-18T01:16:48.001Z,100322.88
2022-10-18T01:17:56.192Z,100325.53
2022-10-18T01:19:35.690Z,100325.63
2022-10-18T01:20:52.114Z,100326.84
2022-10-18T01:22:00.192Z,100326.94
2022-10-18T01:23:07.874Z,100317.59
2022-10-18T01:24:17.559Z,100324.44
2022-10-18T01:25:51.432Z,100329.56
2022-10-18T01:27:10.964Z,100327.66
2022-10-18T01:28:35.292Z,100326.09
2022-10-18T01:29:58.556Z,100318.44
2022-10-18T01:31:46.427Z,100313.00
2022-10-18T01:32:54.347Z,100320.34
2022-10-18T01:34:04.433Z,100313.38
2022-10-18T01:35:12.478Z,100321.16
2022-10-18T01:36:29.362Z,100312.91
2022-10-18T01:37:32.861Z,100312.81
2022-10-18T01:38:36.547Z,100316.25
2022-10-18T01:39:41.733Z,100309.78
2022-10-18T01:40:45.617Z,100313.63
2022-10-18T01:41:50.517Z,100312.91
2022-10-18T01:42:52.041Z,100311.31
2022-10-18T01:43:59.357Z,100303.94
2022-10-18T01:45:03.496Z,100303.78
2022-10-18T01:46:05.310Z,100303.16
2022-10-18T01:47:09.467Z,100302.22
2022-10-18T01:48:12.807Z,100312.50
2022-10-18T01:49:14.251Z,100305.03
2022-10-18T01:50:15.934Z,100307.19
2022-10-18T01:51:25.540Z,100302.88
2022-10-18T01:52:27.021Z,100301.31
2022-10-18T01:53:32.050Z,100295.78
2022-10-18T01:54:37.438Z,100294.00
2022-10-18T01:55:49.912Z,100288.41
2022-10-18T01:56:57.120Z,100297.03
2022-10-18T01:58:12.312Z,100299.91
2022-10-18T01:59:28.279Z,100295.94
2022-10-18T02:00:41.710Z,100299.00
2022-10-18T02:01:51.939Z,100302.97
2022-10-18T02:02:56.619Z,100293.75
2022-10-18T02:04:07.044Z,100302.16
2022-10-18T02:05:30.116Z,100300.00
2022-10-18T02:06:38.232Z,100297.81
2022-10-18T02:07:51.889Z,100295.94
2022-10-18T02:09:09.497Z,100302.13
2022-10-18T02:10:18.324Z,100297.38
2022-10-18T02:11:20.384Z,100303.34
2022-10-18T02:12:23.325Z,100298.28
2022-10-18T02:13:29.523Z,100301.38
2022-10-18T02:14:32.864Z,100292.41
2022-10-18T02:15:39.065Z,100300.72
2022-10-18T02:16:52.104Z,100300.88
2022-10-18T02:17:55.768Z,100302.22
2022-10-18T02:19:14.425Z,100295.88
2022-10-18T02:20:21.132Z,100296.03
2022-10-18T02:21:24.608Z,100302.38
2022-10-18T02:22:31.080Z,100294.72
2022-10-18T02:23:34.607Z,100298.47
2022-10-18T02:24:39.850Z,100292.84
2022-10-18T02:25:41.344Z,100285.44
2022-10-18T02:26:43.276Z,100293.00
2022-10-18T02:27:44.744Z,100286.91
2022-10-18T02:28:46.294Z,100281.97
2022-10-18T02:29:48.547Z,100285.81
2022-10-18T02:31:02.318Z,100291.75
2022-10-18T02:32:15.737Z,100291.13
2022-10-18T02:33:27.994Z,100287.44
2022-10-18T02:34:34.345Z,100289.34
2022-10-18T02:35:41.984Z,100290.19
2022-10-18T02:36:47.681Z,100291.59
2022-10-18T02:37:50.719Z,100288.03
2022-10-18T02:39:03.663Z,100291.38
2022-10-18T02:40:08.492Z,100284.53
2022-10-18T02:41:09.951Z,100281.91
2022-10-18T02:42:12.047Z,100279.34
2022-10-18T02:43:13.988Z,100280.78
2022-10-18T02:44:15.436Z,100280.78
2022-10-18T02:45:17.253Z,100279.22
2022-10-18T02:46:19.759Z,100277.16
2022-10-18T02:47:21.205Z,100274.75
2022-10-18T02:48:22.552Z,100287.41
2022-10-18T02:49:24.075Z,100271.94
2022-10-18T02:50:25.549Z,100278.06
2022-10-18T02:51:27.004Z,100286.81
2022-10-18T02:52:28.437Z,100282.97
2022-10-18T02:53:29.863Z,100274.13
2022-10-18T02:54:31.198Z,100274.34
2022-10-18T02:55:32.631Z,100269.81
2022-10-18T02:56:35.245Z,100273.06
2022-10-18T02:57:37.471Z,100270.19
2022-10-18T02:58:38.922Z,100266.13
2022-10-18T02:59:40.355Z,100267.59
2022-10-18T03:00:41.812Z,100260.91
2022-10-18T03:01:43.335Z,100260.31
2022-10-18T03:02:44.764Z,100261.03
2022-10-18T03:03:46.243Z,100262.38
2022-10-18T03:04:47.635Z,100256.50
2022-10-18T03:05:49.493Z,100251.34
2022-10-18T03:06:50.904Z,100257.72
2022-10-18T03:07:52.225Z,100249.19
2022-10-18T03:08:54.093Z,100252.31
2022-10-18T03:09:55.538Z,100248.13
2022-10-18T03:10:56.976Z,100256.31
2022-10-18T03:11:58.318Z,100253.13
2022-10-18T03:12:59.728Z,100249.78
2022-10-18T03:14:01.069Z,100256.50
2022-10-18T03:15:02.678Z,100256.50
2022-10-18T03:16:04.271Z,100259.75
2022-10-18T03:17:05.700Z,100263.34
2022-10-18T03:18:07.024Z,100269.06
2022-10-18T03:19:08.483Z,100264.72
2022-10-18T03:20:10.529Z,100270.22
2022-10-18T03:21:12.099Z,100274.66
2022-10-18T03:22:13.512Z,100275.84
2022-10-18T03:23:14.847Z,100277.03
2022-10-18T03:24:16.341Z,100281.13
2022-10-18T03:25:17.810Z,100288.31
2022-10-18T03:26:19.234Z,100283.75
2022-10-18T03:27:20.592Z,100285.22
2022-10-18T03:28:22.003Z,100279.00
2022-10-18T03:29:23.431Z,100275.19
2022-10-18T03:30:24.944Z,100275.06
2022-10-18T03:31:26.397Z,100273.94
2022-10-18T03:32:27.868Z,100279.31
2022-10-18T03:33:29.690Z,100271.41
2022-10-18T03:34:31.102Z,100270.69
2022-10-18T03:35:32.514Z,100272.63
2022-10-18T03:36:33.904Z,100269.13
2022-10-18T03:37:35.936Z,100264.09
2022-10-18T03:38:37.675Z,100267.06
2022-10-18T03:39:39.100Z,100264.78
2022-10-18T03:40:40.562Z,100263.72
2022-10-18T03:41:41.881Z,100263.56
2022-10-18T03:42:43.439Z,100266.84
2022-10-18T03:43:44.857Z,100266.97
2022-10-18T03:44:46.202Z,100268.22
2022-10-18T03:45:47.645Z,100263.66
2022-10-18T03:46:49.054Z,100264.19
2022-10-18T03:47:50.377Z,100273.28
2022-10-18T03:48:51.852Z,100266.44
2022-10-18T03:49:56.290Z,100262.63
2022-10-18T03:50:58.794Z,100266.59
2022-10-18T03:52:00.142Z,100271.13
2022-10-18T03:53:01.558Z,100267.19
2022-10-18T03:54:02.973Z,100273.22
2022-10-18T03:55:04.908Z,100274.03
2022-10-18T03:56:06.636Z,100268.66
2022-10-18T03:57:08.172Z,100271.03
2022-10-18T03:58:09.840Z,100271.75
2022-10-18T03:59:11.285Z,100276.78
2022-10-18T04:00:13.034Z,100281.94
2022-10-18T04:01:15.546Z,100277.38
2022-10-18T04:02:17.011Z,100274.63
2022-10-18T04:03:18.933Z,100277.75
2022-10-18T04:04:20.374Z,100275.97
2022-10-18T04:05:21.983Z,100279.41
2022-10-18T04:06:23.386Z,100277.75
2022-10-18T04:07:24.758Z,100273.91
2022-10-18T04:08:26.496Z,100284.34
2022-10-18T04:09:27.930Z,100279.91
2022-10-18T04:10:29.276Z,100283.97
2022-10-18T04:11:30.866Z,100282.81
2022-10-18T04:12:32.608Z,100287.22
2022-10-18T04:13:34.929Z,100290.72
2022-10-18T04:14:36.411Z,100281.69
2022-10-18T04:15:37.870Z,100286.53
2022-10-18T04:16:39.290Z,100283.88
2022-10-18T04:17:40.672Z,100287.94
2022-10-18T04:18:42.308Z,100285.44
2022-10-18T04:19:43.738Z,100286.28
2022-10-18T04:20:45.158Z,100287.22
2022-10-18T04:21:46.633Z,100285.19
2022-10-18T04:22:48.448Z,100282.81
2022-10-18T04:23:50.898Z,100289.41
2022-10-18T04:24:52.365Z,100284.47
2022-10-18T04:25:53.698Z,100290.13
2022-10-18T04:26:55.124Z,100294.44
2022-10-18T04:27:56.456Z,100290.84
2022-10-18T04:28:58.017Z,100289.75
2022-10-18T04:29:59.491Z,100290.59
2022-10-18T04:31:00.852Z,100288.91
2022-10-18T04:32:02.330Z,100296.59
2022-10-18T04:33:03.810Z,100291.09
2022-10-18T04:34:05.279Z,100296.00
2022-10-18T04:35:07.375Z,100290.38
2022-10-18T04:36:08.809Z,100290.47
2022-10-18T04:37:10.221Z,100288.06
2022-10-18T04:38:11.600Z,100291.78
2022-10-18T04:39:13.046Z,100285.91
2022-10-18T04:40:14.424Z,100283.25
2022-10-18T04:41:15.832Z,100280.75
2022-10-18T04:42:17.171Z,100287.34
2022-10-18T04:43:18.679Z,100282.91
2022-10-18T04:44:20.111Z,100276.53
2022-10-18T04:45:21.531Z,100282.09
2022-10-18T04:46:22.863Z,100279.66
2022-10-18T04:47:24.296Z,100277.53
2022-10-18T04:48:25.759Z,100271.38
2022-10-18T04:49:27.198Z,100273.78
2022-10-18T04:50:28.817Z,100273.78
2022-10-18T04:51:31.693Z,100269.81
2022-10-18T04:52:33.153Z,100279.31
2022-10-18T04:53:34.490Z,100273.06
2022-10-18T04:54:35.936Z,100279.19
2022-10-18T04:55:37.285Z,100275.25
2022-10-18T04:56:38.733Z,100274.38
2022-10-18T04:57:40.081Z,100273.78
2022-10-18T04:58:41.506Z,100269.72
2022-10-18T04:59:42.898Z,100270.78
2022-10-18T05:00:44.377Z,100270.44
2022-10-18T05:01:45.882Z,100275.09
2022-10-18T05:02:47.443Z,100276.66
2022-10-18T05:03:52.537Z,100275.47
2022-10-18T05:04:53.961Z,100281.47
2022-10-18T05:06:01.825Z,100277.53
2022-10-18T05:07:04.781Z,100281.25
2022-10-18T05:08:07.047Z,100271.41
2022-10-18T05:09:08.472Z,100275.25
2022-10-18T05:10:09.870Z,100268.66
2022-10-18T05:11:11.362Z,100271.75
2022-10-18T05:12:12.817Z,100273.91
2022-10-18T05:13:14.146Z,100269.09
2022-10-18T05:14:15.672Z,100269.94
2022-10-18T05:15:17.206Z,100265.38
2022-10-18T05:16:18.691Z,100273.06
2022-10-18T05:17:20.134Z,100265.13
2022-10-18T05:18:21.509Z,100273.75
2022-10-18T05:19:22.936Z,100283.63
2022-10-18T05:20:24.366Z,100282.06
2022-10-18T05:21:25.700Z,100282.41
2022-10-18T05:22:27.182Z,100281.47
2022-10-18T05:23:28.515Z,100282.56
2022-10-18T05:24:29.922Z,100281.59
2022-10-18T05:25:31.278Z,100289.88
2022-10-18T05:26:32.886Z,100283.28
2022-10-18T05:27:34.478Z,100286.16
2022-10-18T05:28:40.427Z,100281.84
2022-10-18T05:29:42.321Z,100281.94
2022-10-18T05:30:43.653Z,100281.94
2022-10-18T05:31:45.116Z,100281.59
2022-10-18T05:32:46.428Z,100283.72
2022-10-18T05:33:47.965Z,100285.19
2022-10-18T05:34:49.413Z,100274.84
2022-10-18T05:35:50.853Z,100276.56
2022-10-18T05:36:52.192Z,100271.97
2022-10-18T05:37:53.603Z,100271.44
2022-10-18T05:38:54.950Z,100274.38
2022-10-18T05:39:56.378Z,100265.69
2022-10-18T05:40:58.350Z,100262.47
2022-10-18T05:41:59.697Z,100265.63
2022-10-18T05:43:01.111Z,100269.13
2022-10-18T05:44:03.588Z,100261.53
2022-10-18T05:45:05.520Z,100263.94
2022-10-18T05:46:11.827Z,100254.53
2022-10-18T05:47:16.406Z,100264.84
2022-10-18T05:48:18.499Z,100264.06
2022-10-18T05:49:20.008Z,100262.97
2022-10-18T05:50:21.619Z,100265.75
2022-10-18T05:51:23.070Z,100265.06
2022-10-18T05:52:24.509Z,100265.06
2022-10-18T05:53:41.920Z,100269.91
2022-10-18T05:54:43.370Z,100271.34
2022-10-18T05:55:44.899Z,100270.13
2022-10-18T05:56:46.462Z,100269.91
2022-10-18T05:57:51.386Z,100275.03
2022-10-18T05:58:52.838Z,100278.50
2022-10-18T05:59:54.252Z,100273.50
2022-10-18T06:00:58.803Z,100275.13
2022-10-18T06:02:00.292Z,100274.19
2022-10-18T06:03:01.716Z,100271.91
2022-10-18T06:04:03.211Z,100268.88
2022-10-18T06:05:04.899Z,100275.38
2022-10-18T06:06:11.553Z,100272.03
2022-10-18T06:07:12.999Z,100265.72
2022-10-18T06:08:14.409Z,100267.44
2022-10-18T06:09:15.890Z,100272.72
2022-10-18T06:10:17.367Z,100267.59
2022-10-18T06:11:20.229Z,100279.56
2022-10-18T06:12:21.655Z,100274.72
2022-10-18T06:13:23.451Z,100272.03
2022-10-18T06:14:24.879Z,100274.94
2022-10-18T06:15:26.313Z,100282.00
2022-10-18T06:16:32.272Z,100276.38
2022-10-18T06:17:34.314Z,100276.38
2022-10-18T06:18:36.378Z,100281.25
2022-10-18T06:19:37.809Z,100281.66
2022-10-18T06:20:39.288Z,100279.06
2022-10-18T06:21:40.679Z,100278.16
2022-10-18T06:22:42.116Z,100271.53
2022-10-18T06:23:43.732Z,100283.00
2022-10-18T06:24:45.145Z,100280.56
2022-10-18T06:25:46.571Z,100277.59
2022-10-18T06:26:48.522Z,100274.78
2022-10-18T06:27:50.034Z,100284.00
2022-10-18T06:28:51.771Z,100276.47
2022-10-18T06:29:53.222Z,100270.84
2022-10-18T06:30:54.772Z,100276.47
2022-10-18T06:31:56.168Z,100266.03
2022-10-18T06:33:01.133Z,100267.94
2022-10-18T06:34:02.565Z,100270.50
2022-10-18T06:35:04.280Z,100272.63
2022-10-18T06:36:08.119Z,100271.03
2022-10-18T06:37:09.536Z,100262.19
2022-10-18T06:38:10.949Z,100262.88
2022-10-18T06:39:12.410Z,100270.00
2022-10-18T06:40:13.852Z,100273.38
2022-10-18T06:41:15.316Z,100268.56
2022-10-18T06:42:19.087Z,100274.78
2022-10-18T06:43:23.873Z,100273.03
2022-10-18T06:44:25.359Z,100276.16
2022-10-18T06:45:26.775Z,100275.50
2022-10-18T06:46:28.264Z,100279.81
2022-10-18T06:47:29.695Z,100281.84
2022-10-18T06:48:31.734Z,100281.03
2022-10-18T06:49:33.180Z,100284.56
2022-10-18T06:50:34.610Z,100285.84
2022-10-18T06:51:36.535Z,100278.91
2022-10-18T06:52:38.015Z,100283.28
2022-10-18T06:53:43.902Z,100284.81
2022-10-18T06:54:50.100Z,100277.63
2022-10-18T06:55:51.612Z,100270.16
2022-10-18T06:56:56.248Z,100279.34
2022-10-18T06:57:57.678Z,100277.69
2022-10-18T07:00:05.793Z,100279.25
2022-10-18T07:01:13.337Z,100272.44
2022-10-18T07:02:16.152Z,100274.13
2022-10-18T07:03:17.576Z,100281.31
2022-10-18T07:04:18.985Z,100273.47
2022-10-18T07:05:20.465Z,100279.50
2022-10-18T07:06:23.325Z,100282.13
2022-10-18T07:07:24.739Z,100279.25
2022-10-18T07:08:26.155Z,100281.81
2022-10-18T07:09:27.662Z,100276.63
2022-10-18T07:10:29.085Z,100280.13
2022-10-18T07:11:30.578Z,100268.25
2022-10-18T07:12:32.901Z,100283.50
2022-10-18T07:13:34.757Z,100280.16
2022-10-18T07:14:36.172Z,100276.38
2022-10-18T07:15:37.612Z,100277.09
2022-10-18T07:16:39.041Z,100276.50
2022-10-18T07:17:40.549Z,100280.25
2022-10-18T07:18:45.586Z,100282.22
2022-10-18T07:19:47.029Z,100276.06
2022-10-18T07:20:48.443Z,100271.84
2022-10-18T07:21:49.844Z,100277.41
2022-10-18T07:22:55.967Z,100277.88
2022-10-18T07:23:57.536Z,100277.69
2022-10-18T07:24:58.948Z,100273.34
2022-10-18T07:26:00.994Z,100281.06
2022-10-18T07:27:02.582Z,100272.78
2022-10-18T07:28:04.093Z,100279.75
2022-10-18T07:29:09.285Z,100273.78
2022-10-18T07:30:11.382Z,100273.88
2022-10-18T07:31:13.352Z,100277.09
2022-10-18T07:32:14.789Z,100270.63
2022-10-18T07:33:16.202Z,100269.75
2022-10-18T07:34:17.630Z,100270.84
2022-10-18T07:35:19.093Z,100263.59
2022-10-18T07:36:21.019Z,100269.22
2022-10-18T07:37:25.470Z,100267.34
2022-10-18T07:38:29.704Z,100268.44
2022-10-18T07:39:31.115Z,100267.81
2022-10-18T07:40:32.580Z,100268.22
2022-10-18T07:41:34.062Z,100265.97
2022-10-18T07:42:35.787Z,100269.69
2022-10-18T07:43:37.192Z,100270.06
2022-10-18T07:44:39.395Z,100269.47
2022-10-18T07:45:40.813Z,100262.22
2022-10-18T07:46:42.241Z,100257.88
2022-10-18T07:47:43.652Z,100262.38
2022-10-18T07:48:45.101Z,100270.19
2022-10-18T07:49:46.507Z,100256.91
2022-10-18T07:50:48.049Z,100260.00
2022-10-18T07:51:49.482Z,100258.75
2022-10-18T07:52:50.892Z,100264.94
2022-10-18T07:53:52.295Z,100254.41
2022-10-18T07:54:53.718Z,100255.91
2022-10-18T07:55:59.470Z,100260.84
2022-10-18T07:57:00.895Z,100253.06
2022-10-18T07:58:02.323Z,100254.72
2022-10-18T07:59:03.796Z,100249.28
2022-10-18T08:00:05.795Z,100251.63
2022-10-18T08:01:14.420Z,100258.78
2022-10-18T08:02:15.912Z,100250.03
2022-10-18T08:03:17.328Z,100247.75
2022-10-18T08:04:18.792Z,100250.31
2022-10-18T08:05:20.244Z,100250.72
2022-10-18T08:06:23.042Z,100246.72
2022-10-18T08:07:24.434Z,100254.59
2022-10-18T08:08:26.763Z,100245.53
2022-10-18T08:09:28.323Z,100243.22
2022-10-18T08:10:29.736Z,100244.03
2022-10-18T08:11:31.626Z,100241.75
2022-10-18T08:12:33.018Z,100239.09
2022-10-18T08:13:34.533Z,100237.41
2022-10-18T08:14:35.947Z,100235.16
2022-10-18T08:15:37.383Z,100236.22
2022-10-18T08:16:38.864Z,100236.75
2022-10-18T08:17:40.266Z,100234.13
2022-10-18T08:18:42.308Z,100233.63
2022-10-18T08:19:52.889Z,100236.66
2022-10-18T08:21:08.159Z,100239.34
2022-10-18T08:22:09.590Z,100230.31
2022-10-18T08:23:11.428Z,100231.91
2022-10-18T08:24:12.836Z,100228.25
2022-10-18T08:25:14.271Z,100233.09
2022-10-18T08:26:18.996Z,100230.97
2022-10-18T08:27:20.423Z,100232.31
2022-10-18T08:28:22.210Z,100230.16
2022-10-18T08:29:26.843Z,100228.84
2022-10-18T08:30:30.613Z,100227.75
2022-10-18T08:31:32.052Z,100222.06
2022-10-18T08:32:33.818Z,100225.25
2022-10-18T08:33:35.575Z,100221.25
2022-10-18T08:35:43.315Z,100221.25
2022-10-18T08:36:44.732Z,100222.56
2022-10-18T08:37:46.192Z,100219.59
2022-10-18T08:38:47.724Z,100223.91
2022-10-18T08:39:49.117Z,100214.56
2022-10-18T08:40:50.836Z,100213.09
2022-10-18T08:42:19.947Z,100206.91
2022-10-18T08:43:47.041Z,100210.91
2022-10-18T08:44:50.664Z,100207.06
2022-10-18T08:45:54.294Z,100206.91
2022-10-18T08:47:02.982Z,100204.25
2022-10-18T08:48:06.692Z,100208.56
2022-10-18T08:49:16.025Z,100207.56
2022-10-18T08:50:25.002Z,100209.38
2022-10-18T08:51:42.383Z,100199.34
2022-10-18T08:53:37.743Z,100199.72
2022-10-18T08:54:55.792Z,100197.38
2022-10-18T08:56:03.545Z,100205.19
2022-10-18T08:57:13.421Z,100201.19
2022-10-18T08:58:20.183Z,100199.59
2022-10-18T08:59:24.729Z,100200.25
2022-10-18T09:00:31.880Z,100197.78
2022-10-18T09:03:03.977Z,100203.16
2022-10-18T09:04:11.372Z,100193.31
2022-10-18T09:05:31.677Z,100196.97
2022-10-18T09:06:44.769Z,100198.34
2022-10-18T09:07:53.074Z,100201.69
2022-10-18T09:09:25.589Z,100190.31
2022-10-18T09:12:42.341Z,100195.00
2022-10-18T09:14:18.040Z,100196.34
2022-10-18T09:15:33.507Z,100186.09
2022-10-18T09:16:56.502Z,100186.22
2022-10-18T09:18:23.261Z,100186.44
2022-10-18T09:19:52.768Z,100190.41
2022-10-18T09:21:03.291Z,100177.72
2022-10-18T09:22:13.545Z,100179.25
2022-10-18T09:23:48.813Z,100184.13
2022-10-18T09:25:05.643Z,100179.31
2022-10-18T09:26:12.442Z,100178.47
2022-10-18T09:27:28.293Z,100182.63
2022-10-18T09:28:42.760Z,100183.63
2022-10-18T09:30:15.341Z,100170.41
2022-10-18T09:31:48.276Z,100167.53
2022-10-18T09:33:25.154Z,100168.94
2022-10-18T09:34:33.639Z,100164.06
2022-10-18T09:35:47.692Z,100174.47
2022-10-18T09:36:51.771Z,100171.47
2022-10-18T09:38:00.848Z,100170.59
2022-10-18T09:39:08.663Z,100166.59
2022-10-18T09:40:24.580Z,100173.03
2022-10-18T09:41:30.173Z,100173.00
2022-10-18T09:42:37.733Z,100174.63
2022-10-18T09:43:52.558Z,100170.41
2022-10-18T09:45:35.125Z,100171.09
2022-10-18T09:46:38.976Z,100166.78
2022-10-18T09:47:53.033Z,100164.06
2022-10-18T09:49:05.826Z,100173.59
2022-10-18T09:50:52.063Z,100164.81
2022-10-18T09:51:54.226Z,100159.78
2022-10-18T09:53:20.068Z,100157.97
2022-10-18T09:54:49.227Z,100160.28
2022-10-18T09:56:09.334Z,100156.44
2022-10-18T09:57:17.826Z,100155.72
2022-10-18T09:58:22.740Z,100154.41
2022-10-18T09:59:43.215Z,100151.63
2022-10-18T10:00:50.899Z,100154.91
2022-10-18T10:01:52.346Z,100146.66
2022-10-18T10:02:54.150Z,100141.63
2022-10-18T10:03:56.989Z,100153.50
2022-10-18T10:04:58.507Z,100144.69
2022-10-18T10:06:16.485Z,100147.00
2022-10-18T10:07:21.101Z,100146.28
2022-10-18T10:08:33.278Z,100140.13
2022-10-18T10:09:44.627Z,100145.47
2022-10-18T10:10:47.142Z,100139.56
2022-10-18T10:11:50.717Z,100146.28
2022-10-18T10:13:16.864Z,100141.19
2022-10-18T10:14:24.262Z,100141.31
2022-10-18T10:15:28.297Z,100137.41
2022-10-18T10:16:32.933Z,100139.47
2022-10-18T10:17:34.965Z,100133.78
2022-10-18T10:18:38.990Z,100130.94
2022-10-18T10:20:02.164Z,100133.88
2022-10-18T10:21:07.146Z,100134.06
2022-10-18T10:22:14.213Z,100129.03
2022-10-18T10:23:24.806Z,100132.38
2022-10-18T10:24:49.374Z,100132.06
2022-10-18T10:25:53.701Z,100125.38
2022-10-18T10:27:00.177Z,100127.88
2022-10-18T10:28:12.046Z,100125.75
2022-10-18T10:29:52.674Z,100127.59
2022-10-18T10:30:54.543Z,100120.84
2022-10-18T10:32:04.013Z,100114.13
2022-10-18T10:33:06.392Z,100106.59
2022-10-18T10:34:13.666Z,100111.94
2022-10-18T10:35:35.310Z,100107.34
2022-10-18T10:36:51.707Z,100107.72
2022-10-18T10:37:54.360Z,100102.81
2022-10-18T10:39:13.086Z,100104.75
2022-10-18T10:40:19.275Z,100105.38
2022-10-18T10:41:23.709Z,100095.53
2022-10-18T10:42:25.184Z,100095.00
2022-10-18T10:43:43.312Z,100093.63
2022-10-18T10:44:55.221Z,100094.03
2022-10-18T10:46:04.953Z,100093.03
2022-10-18T10:47:06.635Z,100090.25
2022-10-18T10:48:15.127Z,100087.91
2022-10-18T10:50:54.398Z,100084.69
2022-10-18T10:52:09.000Z,100084.50
2022-10-18T10:53:29.265Z,100076.28
2022-10-18T10:54:33.495Z,100075.47
2022-10-18T10:55:35.830Z,100074.09
2022-10-18T10:56:59.447Z,100077.25
2022-10-18T10:58:00.965Z,100072.81
2022-10-18T10:59:15.551Z,100074.94
2022-10-18T11:00:36.202Z,100074.19
2022-10-18T11:01:37.616Z,100071.56
2022-10-18T11:02:39.509Z,100072.59
2022-10-18T11:03:46.897Z,100073.41
2022-10-18T11:04:53.353Z,100062.78
2022-10-18T11:05:55.682Z,100061.25
2022-10-18T11:07:09.005Z,100063.06
2022-10-18T11:08:13.047Z,100048.69
2022-10-18T11:09:29.032Z,100054.41
2022-10-18T11:10:44.335Z,100050.34
2022-10-18T11:12:03.314Z,100046.13
2022-10-18T11:13:42.296Z,100041.13
2022-10-18T11:14:49.747Z,100034.88
2022-10-18T11:15:59.383Z,100040.44
2022-10-18T11:17:22.810Z,100039.09
2022-10-18T11:18:30.263Z,100035.72
2022-10-18T11:19:42.711Z,100029.91
2022-10-18T11:20:58.127Z,100027.00
2022-10-18T11:22:04.476Z,100017.97
2022-10-18T11:23:08.142Z,100012.91
2022-10-18T11:24:15.088Z,100016.41
2022-10-18T11:25:17.251Z,100024.38
2022-10-18T11:26:48.912Z,100016.25
2022-10-18T11:28:05.929Z,100020.31
2022-10-18T11:29:28.180Z,100011.34
2022-10-18T11:31:12.688Z,100011.88
2022-10-18T11:32:31.297Z,100008.28
2022-10-18T11:34:08.740Z,100006.38
2022-10-18T11:35:50.992Z,100007.66
2022-10-18T11:37:27.164Z,100007.69
2022-10-18T11:38:37.236Z,100004.50
2022-10-18T11:39:54.516Z,100001.09
2022-10-18T11:41:23.887Z,99990.84
2022-10-18T11:42:55.585Z,99993.53
2022-10-18T11:44:03.689Z,99986.44
2022-10-18T11:45:43.865Z,99994.47
2022-10-18T11:46:48.849Z,99991.88
2022-10-18T11:47:55.872Z,99996.94
2022-10-18T11:49:22.564Z,99985.78
2022-10-18T11:50:34.831Z,99991.59
2022-10-18T11:52:09.134Z,99988.94
2022-10-18T11:53:22.940Z,99979.03
2022-10-18T11:54:58.467Z,99975.44
2022-10-18T11:56:17.884Z,99966.63
2022-10-18T11:57:50.046Z,99957.38
2022-10-18T11:59:27.600Z,99963.03
2022-10-18T12:00:43.094Z,99961.84
2022-10-18T12:02:03.659Z,99959.31
2022-10-18T12:03:14.245Z,99964.41
2022-10-18T12:04:24.942Z,99958.28
2022-10-18T12:05:27.269Z,99959.78
2022-10-18T12:06:34.586Z,99957.38
2022-10-18T12:07:51.676Z,99943.50
2022-10-18T12:08:58.248Z,99937.31
2022-10-18T12:10:01.262Z,99937.44
2022-10-18T12:11:11.416Z,99934.22
2022-10-18T12:12:19.330Z,99934.22
2022-10-18T12:13:48.181Z,99919.41
2022-10-18T12:14:54.634Z,99920.84
2022-10-18T12:15:56.549Z,99924.38
2022-10-18T12:17:35.936Z,99926.56
2022-10-18T12:18:26.263Z,99919.56
2022-10-18T12:19:29.900Z,99923.91
2022-10-18T12:20:35.115Z,99926.28
2022-10-18T12:21:37.034Z,99922.97
2022-10-18T12:22:44.694Z,99927.69
2022-10-18T12:23:54.445Z,99929.53
2022-10-18T12:24:55.863Z,99931.91
2022-10-18T12:26:06.396Z,99934.06
2022-10-18T12:27:13.079Z,99931.53
2022-10-18T12:28:24.692Z,99929.72
2022-10-18T12:29:34.727Z,99930.72
2022-10-18T12:31:01.050Z,99922.16
2022-10-18T12:32:08.831Z,99923.81
2022-10-18T12:33:28.578Z,99923.19
2022-10-18T12:34:40.775Z,99926.13
2022-10-18T12:36:16.495Z,99917.91
2022-10-18T12:37:34.679Z,99918.34
2022-10-18T12:38:40.657Z,99916.25
2022-10-18T12:41:21.935Z,99909.53
2022-10-18T12:42:27.074Z,99911.72
2022-10-18T12:43:31.229Z,99904.25
2022-10-18T12:44:34.798Z,99905.75
2022-10-18T12:45:48.993Z,99905.28
2022-10-18T12:46:57.808Z,99903.34
2022-10-18T12:48:06.379Z,99902.69